sensor_id;sensor_type;location;lat;lon;timestamp;temperature;humidity
81488;DHT22;70897;52.464;13.428;2024-03-23T00:54:34;8.00;99.90
81488;DHT22;70897;52.464;13.428;2024-03-23T00:57:19;8.00;99.90
81488;DHT22;70897;52.464;13.428;2024-03-23T01:00:05;8.00;99.90
81488;DHT22;70897;52.464;13.428;2024-03-23T01:02:51;7.90;99.90
81488;DHT22;70897;52.464;13.428;2024-03-23T01:05:36;7.90;99.90
81488;DHT22;70897;52.464;13.428;2024-03-23T01:08:21;7.90;99.90
81488;DHT22;70897;52.464;13.428;2024-03-23T01:11:06;7.90;99.90
81488;DHT22;70897;52.464;13.428;2024-03-23T01:13:51;7.90;99.90
81488;DHT22;70897;52.464;13.428;2024-03-23T01:16:39;7.80;99.90
81488;DHT22;70897;52.464;13.428;2024-03-23T01:19:24;7.80;99.90
81488;DHT22;70897;52.464;13.428;2024-03-23T01:22:09;7.80;99.90
81488;DHT22;70897;52.464;13.428;2024-03-23T01:24:54;7.80;99.90
81488;DHT22;70897;52.464;13.428;2024-03-23T01:27:39;7.80;99.90
81488;DHT22;70897;52.464;13.428;2024-03-23T01:30:25;7.80;99.90
81488;DHT22;70897;52.464;13.428;2024-03-23T01:33:10;7.80;99.90
81488;DHT22;70897;52.464;13.428;2024-03-23T01:35:55;7.80;99.90
81488;DHT22;70897;52.464;13.428;2024-03-23T01:38:40;7.70;99.90
81488;DHT22;70897;52.464;13.428;2024-03-23T01:41:25;7.70;99.90
81488;DHT22;70897;52.464;13.428;2024-03-23T01:44:11;7.70;99.90
81488;DHT22;70897;52.464;13.428;2024-03-23T01:46:56;7.70;99.90
81488;DHT22;70897;52.464;13.428;2024-03-23T01:49:41;7.70;99.90
81488;DHT22;70897;52.464;13.428;2024-03-23T01:52:26;7.70;99.90
81488;DHT22;70897;52.464;13.428;2024-03-23T01:55:12;7.70;99.90
81488;DHT22;70897;52.464;13.428;2024-03-23T01:57:57;7.70;99.90
81488;DHT22;70897;52.464;13.428;2024-03-23T02:00:42;7.70;99.90
81488;DHT22;70897;52.464;13.428;2024-03-23T02:03:28;7.70;99.90
81488;DHT22;70897;52.464;13.428;2024-03-23T02:06:13;7.70;99.90
81488;DHT22;70897;52.464;13.428;2024-03-23T02:08:58;7.80;99.90
81488;DHT22;70897;52.464;13.428;2024-03-23T02:11:44;7.70;99.90
81488;DHT22;70897;52.464;13.428;2024-03-23T02:14:29;7.70;99.90
81488;DHT22;70897;52.464;13.428;2024-03-23T02:17:14;7.70;99.90
81488;DHT22;70897;52.464;13.428;2024-03-23T02:19:59;7.70;99.90
81488;DHT22;70897;52.464;13.428;2024-03-23T02:22:45;7.70;99.90
81488;DHT22;70897;52.464;13.428;2024-03-23T02:25:30;7.70;99.90
81488;DHT22;70897;52.464;13.428;2024-03-23T02:28:15;7.70;99.90
81488;DHT22;70897;52.464;13.428;2024-03-23T02:31:00;7.70;99.90
81488;DHT22;70897;52.464;13.428;2024-03-23T02:33:46;7.70;99.90
81488;DHT22;70897;52.464;13.428;2024-03-23T02:36:31;7.80;99.90
81488;DHT22;70897;52.464;13.428;2024-03-23T02:39:16;7.80;99.90
81488;DHT22;70897;52.464;13.428;2024-03-23T02:42:01;7.80;99.90
81488;DHT22;70897;52.464;13.428;2024-03-23T02:44:46;7.70;99.90
81488;DHT22;70897;52.464;13.428;2024-03-23T02:47:31;7.70;99.90
81488;DHT22;70897;52.464;13.428;2024-03-23T02:50:16;7.70;99.90
81488;DHT22;70897;52.464;13.428;2024-03-23T02:53:01;7.70;99.90
81488;DHT22;70897;52.464;13.428;2024-03-23T02:55:46;7.60;99.90
81488;DHT22;70897;52.464;13.428;2024-03-23T02:58:31;7.60;99.90
81488;DHT22;70897;52.464;13.428;2024-03-23T03:01:16;7.70;99.90
81488;DHT22;70897;52.464;13.428;2024-03-23T03:04:01;7.70;99.90
81488;DHT22;70897;52.464;13.428;2024-03-23T03:06:47;7.70;99.90
81488;DHT22;70897;52.464;13.428;2024-03-23T03:09:32;7.70;99.90
81488;DHT22;70897;52.464;13.428;2024-03-23T03:12:17;7.70;99.90
81488;DHT22;70897;52.464;13.428;2024-03-23T03:15:03;7.70;99.90
81488;DHT22;70897;52.464;13.428;2024-03-23T03:17:49;7.70;99.90
81488;DHT22;70897;52.464;13.428;2024-03-23T03:20:34;7.70;99.90
81488;DHT22;70897;52.464;13.428;2024-03-23T03:23:19;7.70;99.90
81488;DHT22;70897;52.464;13.428;2024-03-23T03:26:05;7.70;99.90
81488;DHT22;70897;52.464;13.428;2024-03-23T03:28:50;7.70;99.90
81488;DHT22;70897;52.464;13.428;2024-03-23T03:31:36;7.80;99.90
81488;DHT22;70897;52.464;13.428;2024-03-23T03:34:21;7.80;99.90
81488;DHT22;70897;52.464;13.428;2024-03-23T03:37:06;7.80;99.90
81488;DHT22;70897;52.464;13.428;2024-03-23T03:39:51;7.80;99.90
81488;DHT22;70897;52.464;13.428;2024-03-23T03:42:36;7.80;99.90
81488;DHT22;70897;52.464;13.428;2024-03-23T03:45:21;7.70;99.90
81488;DHT22;70897;52.464;13.428;2024-03-23T03:48:07;7.70;99.90
81488;DHT22;70897;52.464;13.428;2024-03-23T03:50:53;7.70;99.90
81488;DHT22;70897;52.464;13.428;2024-03-23T03:53:38;7.70;99.90
81488;DHT22;70897;52.464;13.428;2024-03-23T03:56:23;7.70;99.90
81488;DHT22;70897;52.464;13.428;2024-03-23T03:59:08;7.60;99.90
81488;DHT22;70897;52.464;13.428;2024-03-23T04:01:53;7.60;99.90
81488;DHT22;70897;52.464;13.428;2024-03-23T04:04:38;7.60;99.90
81488;DHT22;70897;52.464;13.428;2024-03-23T04:07:23;7.60;99.90
81488;DHT22;70897;52.464;13.428;2024-03-23T04:10:08;7.50;99.90
81488;DHT22;70897;52.464;13.428;2024-03-23T04:12:53;7.50;99.90
81488;DHT22;70897;52.464;13.428;2024-03-23T04:15:38;7.50;99.90
81488;DHT22;70897;52.464;13.428;2024-03-23T04:18:24;7.50;99.90
81488;DHT22;70897;52.464;13.428;2024-03-23T04:21:09;7.50;99.90
81488;DHT22;70897;52.464;13.428;2024-03-23T04:23:54;7.50;99.90
81488;DHT22;70897;52.464;13.428;2024-03-23T04:26:43;7.40;99.90
81488;DHT22;70897;52.464;13.428;2024-03-23T04:29:28;7.40;99.90
81488;DHT22;70897;52.464;13.428;2024-03-23T04:32:13;7.40;99.90
81488;DHT22;70897;52.464;13.428;2024-03-23T04:34:58;7.30;99.90
81488;DHT22;70897;52.464;13.428;2024-03-23T04:37:43;7.40;99.90
81488;DHT22;70897;52.464;13.428;2024-03-23T04:40:28;7.40;99.90
81488;DHT22;70897;52.464;13.428;2024-03-23T04:43:13;7.30;99.90
81488;DHT22;70897;52.464;13.428;2024-03-23T04:45:58;7.30;99.90
81488;DHT22;70897;52.464;13.428;2024-03-23T04:48:43;7.30;99.90
81488;DHT22;70897;52.464;13.428;2024-03-23T04:51:36;7.30;99.90
81488;DHT22;70897;52.464;13.428;2024-03-23T04:54:24;7.20;99.90
81488;DHT22;70897;52.464;13.428;2024-03-23T04:57:10;7.20;99.90
81488;DHT22;70897;52.464;13.428;2024-03-23T04:59:55;7.10;99.90
81488;DHT22;70897;52.464;13.428;2024-03-23T05:02:40;7.10;99.90
81488;DHT22;70897;52.464;13.428;2024-03-23T05:05:25;7.00;99.90
81488;DHT22;70897;52.464;13.428;2024-03-23T05:08:10;7.00;99.90
81488;DHT22;70897;52.464;13.428;2024-03-23T05:10:55;7.00;99.90
81488;DHT22;70897;52.464;13.428;2024-03-23T05:13:41;7.00;99.90
81488;DHT22;70897;52.464;13.428;2024-03-23T05:16:26;6.90;99.90
81488;DHT22;70897;52.464;13.428;2024-03-23T05:19:11;6.90;99.90
81488;DHT22;70897;52.464;13.428;2024-03-23T05:21:56;6.90;99.90
81488;DHT22;70897;52.464;13.428;2024-03-23T05:24:41;6.80;99.90
81488;DHT22;70897;52.464;13.428;2024-03-23T05:27:26;6.80;99.90
81488;DHT22;70897;52.464;13.428;2024-03-23T05:30:11;6.80;99.90
81488;DHT22;70897;52.464;13.428;2024-03-23T05:32:57;6.70;99.90
81488;DHT22;70897;52.464;13.428;2024-03-23T05:35:42;6.70;99.90
81488;DHT22;70897;52.464;13.428;2024-03-23T05:38:27;6.70;99.90
81488;DHT22;70897;52.464;13.428;2024-03-23T05:41:13;6.70;99.90
81488;DHT22;70897;52.464;13.428;2024-03-23T05:43:58;6.70;99.90
81488;DHT22;70897;52.464;13.428;2024-03-23T05:46:43;6.70;99.90
81488;DHT22;70897;52.464;13.428;2024-03-23T05:49:33;6.70;99.90
81488;DHT22;70897;52.464;13.428;2024-03-23T05:52:18;6.70;99.90
81488;DHT22;70897;52.464;13.428;2024-03-23T05:55:06;6.80;99.90
81488;DHT22;70897;52.464;13.428;2024-03-23T05:57:51;6.80;99.90
81488;DHT22;70897;52.464;13.428;2024-03-23T06:00:36;6.90;99.90
81488;DHT22;70897;52.464;13.428;2024-03-23T06:03:21;6.90;99.90
81488;DHT22;70897;52.464;13.428;2024-03-23T06:06:06;6.90;99.90
81488;DHT22;70897;52.464;13.428;2024-03-23T06:08:56;6.90;99.90
81488;DHT22;70897;52.464;13.428;2024-03-23T06:11:41;6.90;99.90
81488;DHT22;70897;52.464;13.428;2024-03-23T06:14:26;6.90;99.90
81488;DHT22;70897;52.464;13.428;2024-03-23T06:17:11;7.00;99.90
81488;DHT22;70897;52.464;13.428;2024-03-23T06:19:56;7.00;99.90
81488;DHT22;70897;52.464;13.428;2024-03-23T06:22:41;7.00;99.90
81488;DHT22;70897;52.464;13.428;2024-03-23T06:25:26;7.00;99.90
81488;DHT22;70897;52.464;13.428;2024-03-23T06:28:12;7.10;99.90
81488;DHT22;70897;52.464;13.428;2024-03-23T06:30:57;7.20;99.90
81488;DHT22;70897;52.464;13.428;2024-03-23T06:33:42;7.20;99.90
81488;DHT22;70897;52.464;13.428;2024-03-23T06:36:27;7.30;99.90
81488;DHT22;70897;52.464;13.428;2024-03-23T06:39:12;7.30;99.90
81488;DHT22;70897;52.464;13.428;2024-03-23T06:42:00;7.40;99.90
81488;DHT22;70897;52.464;13.428;2024-03-23T06:44:45;7.40;99.90
81488;DHT22;70897;52.464;13.428;2024-03-23T06:47:31;7.50;99.90
81488;DHT22;70897;52.464;13.428;2024-03-23T06:50:16;7.40;99.90
81488;DHT22;70897;52.464;13.428;2024-03-23T06:53:01;7.40;99.90
81488;DHT22;70897;52.464;13.428;2024-03-23T06:55:50;7.60;99.90
81488;DHT22;70897;52.464;13.428;2024-03-23T06:58:36;7.70;99.90
81488;DHT22;70897;52.464;13.428;2024-03-23T07:01:21;7.80;99.90
81488;DHT22;70897;52.464;13.428;2024-03-23T07:04:06;7.80;99.90
81488;DHT22;70897;52.464;13.428;2024-03-23T07:06:51;7.80;99.90
81488;DHT22;70897;52.464;13.428;2024-03-23T07:09:37;7.90;99.90
81488;DHT22;70897;52.464;13.428;2024-03-23T07:12:22;7.90;99.90
81488;DHT22;70897;52.464;13.428;2024-03-23T07:15:07;8.00;99.90
81488;DHT22;70897;52.464;13.428;2024-03-23T07:17:52;7.90;99.90
81488;DHT22;70897;52.464;13.428;2024-03-23T07:20:37;7.90;99.90
81488;DHT22;70897;52.464;13.428;2024-03-23T07:23:23;7.90;99.90
81488;DHT22;70897;52.464;13.428;2024-03-23T07:26:08;7.80;99.90
81488;DHT22;70897;52.464;13.428;2024-03-23T07:28:54;7.70;99.90
81488;DHT22;70897;52.464;13.428;2024-03-23T07:31:39;7.70;99.90
81488;DHT22;70897;52.464;13.428;2024-03-23T07:34:24;7.70;99.90
81488;DHT22;70897;52.464;13.428;2024-03-23T07:37:09;7.80;99.90
81488;DHT22;70897;52.464;13.428;2024-03-23T07:39:54;7.90;99.90
81488;DHT22;70897;52.464;13.428;2024-03-23T07:42:39;8.00;99.90
81488;DHT22;70897;52.464;13.428;2024-03-23T07:45:24;8.00;99.90
81488;DHT22;70897;52.464;13.428;2024-03-23T07:48:09;8.10;99.90
81488;DHT22;70897;52.464;13.428;2024-03-23T07:51:11;8.10;99.90
81488;DHT22;70897;52.464;13.428;2024-03-23T07:53:56;8.00;99.90
81488;DHT22;70897;52.464;13.428;2024-03-23T07:56:41;7.90;99.90
81488;DHT22;70897;52.464;13.428;2024-03-23T07:59:26;7.90;99.90
81488;DHT22;70897;52.464;13.428;2024-03-23T08:02:11;7.80;99.90
81488;DHT22;70897;52.464;13.428;2024-03-23T08:04:56;7.70;99.90
81488;DHT22;70897;52.464;13.428;2024-03-23T08:07:41;7.70;99.90
81488;DHT22;70897;52.464;13.428;2024-03-23T08:10:26;7.60;99.90
81488;DHT22;70897;52.464;13.428;2024-03-23T08:13:12;7.60;99.90
81488;DHT22;70897;52.464;13.428;2024-03-23T08:16:01;7.60;99.90
81488;DHT22;70897;52.464;13.428;2024-03-23T08:18:46;7.60;99.90
81488;DHT22;70897;52.464;13.428;2024-03-23T08:21:31;7.50;99.90
81488;DHT22;70897;52.464;13.428;2024-03-23T08:24:16;7.50;99.90
81488;DHT22;70897;52.464;13.428;2024-03-23T08:27:01;7.50;99.90
81488;DHT22;70897;52.464;13.428;2024-03-23T08:29:46;7.50;99.90
81488;DHT22;70897;52.464;13.428;2024-03-23T08:32:31;7.50;99.90
81488;DHT22;70897;52.464;13.428;2024-03-23T08:35:17;7.40;99.90
81488;DHT22;70897;52.464;13.428;2024-03-23T08:38:02;7.30;99.90
81488;DHT22;70897;52.464;13.428;2024-03-23T08:40:47;7.30;99.90
81488;DHT22;70897;52.464;13.428;2024-03-23T08:43:40;7.20;99.90
81488;DHT22;70897;52.464;13.428;2024-03-23T08:46:25;7.20;99.90
81488;DHT22;70897;52.464;13.428;2024-03-23T08:49:10;7.20;99.90
81488;DHT22;70897;52.464;13.428;2024-03-23T08:51:56;7.20;99.90
81488;DHT22;70897;52.464;13.428;2024-03-23T08:54:41;7.10;99.90
81488;DHT22;70897;52.464;13.428;2024-03-23T08:57:26;7.10;99.90
81488;DHT22;70897;52.464;13.428;2024-03-23T09:00:11;7.10;99.90
81488;DHT22;70897;52.464;13.428;2024-03-23T09:02:57;6.90;99.90
81488;DHT22;70897;52.464;13.428;2024-03-23T09:05:42;6.80;99.90
81488;DHT22;70897;52.464;13.428;2024-03-23T09:08:27;6.70;99.90
81488;DHT22;70897;52.464;13.428;2024-03-23T09:11:13;6.70;99.90
81488;DHT22;70897;52.464;13.428;2024-03-23T09:13:58;6.70;99.90
81488;DHT22;70897;52.464;13.428;2024-03-23T09:16:43;6.60;99.90
81488;DHT22;70897;52.464;13.428;2024-03-23T09:19:29;6.50;99.90
81488;DHT22;70897;52.464;13.428;2024-03-23T09:22:14;6.40;99.90
81488;DHT22;70897;52.464;13.428;2024-03-23T09:24:59;6.30;99.90
81488;DHT22;70897;52.464;13.428;2024-03-23T09:27:47;6.20;99.90
81488;DHT22;70897;52.464;13.428;2024-03-23T09:30:33;6.00;99.90
81488;DHT22;70897;52.464;13.428;2024-03-23T09:33:18;6.00;99.90
81488;DHT22;70897;52.464;13.428;2024-03-23T09:36:04;5.90;99.90
81488;DHT22;70897;52.464;13.428;2024-03-23T09:38:49;5.80;99.90
81488;DHT22;70897;52.464;13.428;2024-03-23T09:41:35;5.80;99.90
81488;DHT22;70897;52.464;13.428;2024-03-23T09:44:20;5.80;99.90
81488;DHT22;70897;52.464;13.428;2024-03-23T09:47:05;5.80;99.90
81488;DHT22;70897;52.464;13.428;2024-03-23T09:49:51;5.80;99.90
81488;DHT22;70897;52.464;13.428;2024-03-23T09:52:36;5.80;99.90
81488;DHT22;70897;52.464;13.428;2024-03-23T09:55:21;5.70;99.90
81488;DHT22;70897;52.464;13.428;2024-03-23T09:58:06;5.70;99.90
81488;DHT22;70897;52.464;13.428;2024-03-23T10:00:51;5.70;99.90
81488;DHT22;70897;52.464;13.428;2024-03-23T10:03:43;5.70;99.90
81488;DHT22;70897;52.464;13.428;2024-03-23T10:06:28;5.60;99.90
81488;DHT22;70897;52.464;13.428;2024-03-23T10:09:17;5.60;99.90
81488;DHT22;70897;52.464;13.428;2024-03-23T10:12:12;5.60;99.90
81488;DHT22;70897;52.464;13.428;2024-03-23T10:14:58;5.60;99.90
81488;DHT22;70897;52.464;13.428;2024-03-23T10:17:43;5.60;99.90
81488;DHT22;70897;52.464;13.428;2024-03-23T10:20:29;5.50;99.90
81488;DHT22;70897;52.464;13.428;2024-03-23T10:23:18;5.50;99.90
81488;DHT22;70897;52.464;13.428;2024-03-23T10:26:16;5.50;99.90
81488;DHT22;70897;52.464;13.428;2024-03-23T10:29:02;5.40;99.90
81488;DHT22;70897;52.464;13.428;2024-03-23T10:32:10;5.50;99.90
81488;DHT22;70897;52.464;13.428;2024-03-23T10:34:55;5.50;99.90
81488;DHT22;70897;52.464;13.428;2024-03-23T10:37:42;5.50;99.90
81488;DHT22;70897;52.464;13.428;2024-03-23T10:40:27;5.50;99.90
81488;DHT22;70897;52.464;13.428;2024-03-23T10:43:14;5.60;99.90
81488;DHT22;70897;52.464;13.428;2024-03-23T10:46:03;5.60;99.90
81488;DHT22;70897;52.464;13.428;2024-03-23T10:48:52;5.60;99.90
81488;DHT22;70897;52.464;13.428;2024-03-23T10:51:37;5.70;99.90
81488;DHT22;70897;52.464;13.428;2024-03-23T10:54:39;5.80;99.90
81488;DHT22;70897;52.464;13.428;2024-03-23T10:57:45;5.80;99.90
81488;DHT22;70897;52.464;13.428;2024-03-23T11:00:38;5.90;99.90
81488;DHT22;70897;52.464;13.428;2024-03-23T11:03:32;5.80;99.90
81488;DHT22;70897;52.464;13.428;2024-03-23T11:06:37;5.90;99.90
81488;DHT22;70897;52.464;13.428;2024-03-23T11:09:41;5.80;99.90
81488;DHT22;70897;52.464;13.428;2024-03-23T11:12:30;5.90;99.90
81488;DHT22;70897;52.464;13.428;2024-03-23T11:15:17;6.00;99.90
81488;DHT22;70897;52.464;13.428;2024-03-23T11:18:07;6.10;99.90
81488;DHT22;70897;52.464;13.428;2024-03-23T11:20:56;6.10;99.90
81488;DHT22;70897;52.464;13.428;2024-03-23T11:23:41;6.20;99.90
81488;DHT22;70897;52.464;13.428;2024-03-23T11:26:26;6.40;99.90
81488;DHT22;70897;52.464;13.428;2024-03-23T11:29:14;6.50;99.90
81488;DHT22;70897;52.464;13.428;2024-03-23T11:31:59;6.50;99.90
81488;DHT22;70897;52.464;13.428;2024-03-23T11:34:46;6.50;99.90
81488;DHT22;70897;52.464;13.428;2024-03-23T11:37:31;6.50;99.90
81488;DHT22;70897;52.464;13.428;2024-03-23T11:40:19;6.50;99.90
81488;DHT22;70897;52.464;13.428;2024-03-23T11:43:06;6.50;99.90
81488;DHT22;70897;52.464;13.428;2024-03-23T11:45:52;6.70;99.90
81488;DHT22;70897;52.464;13.428;2024-03-23T11:48:50;6.80;99.90
81488;DHT22;70897;52.464;13.428;2024-03-23T11:51:35;7.10;99.90
81488;DHT22;70897;52.464;13.428;2024-03-23T11:54:22;7.30;99.90
81488;DHT22;70897;52.464;13.428;2024-03-23T11:57:08;7.50;99.90
81488;DHT22;70897;52.464;13.428;2024-03-23T11:59:53;7.40;99.90
81488;DHT22;70897;52.464;13.428;2024-03-23T12:02:39;7.30;99.90
81488;DHT22;70897;52.464;13.428;2024-03-23T12:05:26;7.30;99.90
81488;DHT22;70897;52.464;13.428;2024-03-23T12:08:19;7.20;99.90
81488;DHT22;70897;52.464;13.428;2024-03-23T12:11:09;7.10;99.90
81488;DHT22;70897;52.464;13.428;2024-03-23T12:13:59;7.10;99.90
81488;DHT22;70897;52.464;13.428;2024-03-23T12:16:44;7.00;99.90
81488;DHT22;70897;52.464;13.428;2024-03-23T12:19:29;7.00;99.90
81488;DHT22;70897;52.464;13.428;2024-03-23T12:22:14;7.10;99.90
81488;DHT22;70897;52.464;13.428;2024-03-23T12:25:00;7.00;99.90
81488;DHT22;70897;52.464;13.428;2024-03-23T12:27:45;6.90;99.90
81488;DHT22;70897;52.464;13.428;2024-03-23T12:30:30;7.00;99.90
81488;DHT22;70897;52.464;13.428;2024-03-23T12:33:15;7.10;99.90
81488;DHT22;70897;52.464;13.428;2024-03-23T12:36:01;7.20;99.90
81488;DHT22;70897;52.464;13.428;2024-03-23T12:38:46;7.30;99.90
81488;DHT22;70897;52.464;13.428;2024-03-23T12:41:31;7.40;99.90
81488;DHT22;70897;52.464;13.428;2024-03-23T12:44:16;7.40;99.90
81488;DHT22;70897;52.464;13.428;2024-03-23T12:47:01;7.40;99.90
81488;DHT22;70897;52.464;13.428;2024-03-23T12:49:46;7.30;99.90
81488;DHT22;70897;52.464;13.428;2024-03-23T12:52:32;7.10;99.90
81488;DHT22;70897;52.464;13.428;2024-03-23T12:55:17;6.90;99.90
81488;DHT22;70897;52.464;13.428;2024-03-23T12:58:03;6.70;99.90
81488;DHT22;70897;52.464;13.428;2024-03-23T13:00:49;6.50;99.90
81488;DHT22;70897;52.464;13.428;2024-03-23T13:03:34;6.60;99.90
81488;DHT22;70897;52.464;13.428;2024-03-23T13:06:19;6.90;99.90
81488;DHT22;70897;52.464;13.428;2024-03-23T13:09:04;6.90;99.90
81488;DHT22;70897;52.464;13.428;2024-03-23T13:11:50;7.10;99.90
81488;DHT22;70897;52.464;13.428;2024-03-23T13:14:35;7.60;99.90
81488;DHT22;70897;52.464;13.428;2024-03-23T13:17:20;7.90;99.90
81488;DHT22;70897;52.464;13.428;2024-03-23T13:20:06;8.40;99.90
81488;DHT22;70897;52.464;13.428;2024-03-23T13:22:56;8.80;99.90
81488;DHT22;70897;52.464;13.428;2024-03-23T13:25:41;9.70;99.90
81488;DHT22;70897;52.464;13.428;2024-03-23T13:28:34;11.60;99.90
81488;DHT22;70897;52.464;13.428;2024-03-23T13:31:20;14.50;99.90
81488;DHT22;70897;52.464;13.428;2024-03-23T13:34:06;17.00;99.90
81488;DHT22;70897;52.464;13.428;2024-03-23T13:36:51;17.50;96.80
81488;DHT22;70897;52.464;13.428;2024-03-23T13:39:36;17.40;91.20
81488;DHT22;70897;52.464;13.428;2024-03-23T13:42:21;17.90;79.20
81488;DHT22;70897;52.464;13.428;2024-03-23T13:45:09;18.10;73.40
81488;DHT22;70897;52.464;13.428;2024-03-23T13:47:56;18.50;67.30
81488;DHT22;70897;52.464;13.428;2024-03-23T13:50:41;17.80;69.80
81488;DHT22;70897;52.464;13.428;2024-03-23T13:53:26;18.10;74.00
81488;DHT22;70897;52.464;13.428;2024-03-23T13:56:12;19.00;95.50
81488;DHT22;70897;52.464;13.428;2024-03-23T13:58:57;19.00;74.20
81488;DHT22;70897;52.464;13.428;2024-03-23T14:01:46;18.50;62.90
81488;DHT22;70897;52.464;13.428;2024-03-23T14:04:30;18.10;81.40
81488;DHT22;70897;52.464;13.428;2024-03-23T14:07:15;18.00;68.30
81488;DHT22;70897;52.464;13.428;2024-03-23T14:10:04;18.20;61.50
81488;DHT22;70897;52.464;13.428;2024-03-23T14:12:51;17.40;58.60
81488;DHT22;70897;52.464;13.428;2024-03-23T14:15:36;16.80;64.40
81488;DHT22;70897;52.464;13.428;2024-03-23T14:18:22;15.70;72.60
81488;DHT22;70897;52.464;13.428;2024-03-23T14:21:10;15.30;72.50
81488;DHT22;70897;52.464;13.428;2024-03-23T14:23:55;16.70;67.70
81488;DHT22;70897;52.464;13.428;2024-03-23T14:26:40;15.50;67.00
81488;DHT22;70897;52.464;13.428;2024-03-23T14:29:25;13.50;76.50
81488;DHT22;70897;52.464;13.428;2024-03-23T14:32:10;12.10;90.50
81488;DHT22;70897;52.464;13.428;2024-03-23T14:34:55;11.30;97.60
81488;DHT22;70897;52.464;13.428;2024-03-23T14:37:40;10.80;99.90
81488;DHT22;70897;52.464;13.428;2024-03-23T14:40:26;10.30;99.90
81488;DHT22;70897;52.464;13.428;2024-03-23T14:43:12;9.80;99.90
81488;DHT22;70897;52.464;13.428;2024-03-23T14:46:16;9.60;99.90
81488;DHT22;70897;52.464;13.428;2024-03-23T14:49:01;9.20;99.90
81488;DHT22;70897;52.464;13.428;2024-03-23T14:51:46;9.00;99.90
81488;DHT22;70897;52.464;13.428;2024-03-23T14:54:31;8.80;99.90
81488;DHT22;70897;52.464;13.428;2024-03-23T14:57:16;8.60;99.90
81488;DHT22;70897;52.464;13.428;2024-03-23T15:00:04;8.30;99.90
81488;DHT22;70897;52.464;13.428;2024-03-23T15:02:49;8.10;99.90
81488;DHT22;70897;52.464;13.428;2024-03-23T15:05:35;7.40;99.90
81488;DHT22;70897;52.464;13.428;2024-03-23T15:08:22;7.50;99.90
81488;DHT22;70897;52.464;13.428;2024-03-23T15:11:07;7.70;99.90
81488;DHT22;70897;52.464;13.428;2024-03-23T15:13:52;8.00;99.90
81488;DHT22;70897;52.464;13.428;2024-03-23T15:16:38;8.10;99.90
81488;DHT22;70897;52.464;13.428;2024-03-23T15:19:23;8.20;99.90
81488;DHT22;70897;52.464;13.428;2024-03-23T15:22:08;8.20;99.90
81488;DHT22;70897;52.464;13.428;2024-03-23T15:24:53;8.10;99.90
81488;DHT22;70897;52.464;13.428;2024-03-23T15:27:38;8.00;99.90
81488;DHT22;70897;52.464;13.428;2024-03-23T15:30:24;7.90;99.90
81488;DHT22;70897;52.464;13.428;2024-03-23T15:33:08;7.90;99.90
81488;DHT22;70897;52.464;13.428;2024-03-23T15:35:54;7.70;99.90
81488;DHT22;70897;52.464;13.428;2024-03-23T15:38:39;7.50;99.90
81488;DHT22;70897;52.464;13.428;2024-03-23T15:41:24;7.40;99.90
81488;DHT22;70897;52.464;13.428;2024-03-23T15:44:08;7.30;99.90
81488;DHT22;70897;52.464;13.428;2024-03-23T15:46:53;7.40;99.90
81488;DHT22;70897;52.464;13.428;2024-03-23T15:49:39;7.40;99.90
81488;DHT22;70897;52.464;13.428;2024-03-23T15:52:27;7.40;99.90
81488;DHT22;70897;52.464;13.428;2024-03-23T15:55:12;7.50;99.90
81488;DHT22;70897;52.464;13.428;2024-03-23T15:57:57;7.50;99.90
81488;DHT22;70897;52.464;13.428;2024-03-23T16:00:43;7.50;99.90
81488;DHT22;70897;52.464;13.428;2024-03-23T16:03:28;7.50;99.90
81488;DHT22;70897;52.464;13.428;2024-03-23T16:06:14;7.50;99.90
81488;DHT22;70897;52.464;13.428;2024-03-23T16:08:59;7.40;99.90
81488;DHT22;70897;52.464;13.428;2024-03-23T16:11:44;7.40;99.90
81488;DHT22;70897;52.464;13.428;2024-03-23T16:14:29;7.30;99.90
81488;DHT22;70897;52.464;13.428;2024-03-23T16:17:14;7.20;99.90
81488;DHT22;70897;52.464;13.428;2024-03-23T16:19:59;7.10;99.90
81488;DHT22;70897;52.464;13.428;2024-03-23T16:22:44;7.00;99.90
81488;DHT22;70897;52.464;13.428;2024-03-23T16:25:29;7.00;99.90
81488;DHT22;70897;52.464;13.428;2024-03-23T16:28:15;6.90;99.90
81488;DHT22;70897;52.464;13.428;2024-03-23T16:31:07;6.80;99.90
81488;DHT22;70897;52.464;13.428;2024-03-23T16:33:52;6.80;99.90
81488;DHT22;70897;52.464;13.428;2024-03-23T16:36:37;6.80;99.90
81488;DHT22;70897;52.464;13.428;2024-03-23T16:39:22;6.90;99.90
81488;DHT22;70897;52.464;13.428;2024-03-23T16:42:08;6.70;99.90
81488;DHT22;70897;52.464;13.428;2024-03-23T16:44:53;6.60;99.90
81488;DHT22;70897;52.464;13.428;2024-03-23T16:47:38;6.60;99.90
81488;DHT22;70897;52.464;13.428;2024-03-23T16:50:25;6.60;99.90
81488;DHT22;70897;52.464;13.428;2024-03-23T16:53:10;6.50;99.90
81488;DHT22;70897;52.464;13.428;2024-03-23T16:56:03;6.50;99.90
81488;DHT22;70897;52.464;13.428;2024-03-23T16:58:48;6.50;99.90
81488;DHT22;70897;52.464;13.428;2024-03-23T17:01:34;6.50;99.90
81488;DHT22;70897;52.464;13.428;2024-03-23T17:04:21;6.40;99.90
81488;DHT22;70897;52.464;13.428;2024-03-23T17:07:07;6.50;99.90
81488;DHT22;70897;52.464;13.428;2024-03-23T17:09:52;6.40;99.90
81488;DHT22;70897;52.464;13.428;2024-03-23T17:12:37;6.30;99.90
81488;DHT22;70897;52.464;13.428;2024-03-23T17:15:22;6.20;99.90
81488;DHT22;70897;52.464;13.428;2024-03-23T17:18:07;6.10;99.90
81488;DHT22;70897;52.464;13.428;2024-03-23T17:20:52;6.10;99.90
81488;DHT22;70897;52.464;13.428;2024-03-23T17:23:37;6.10;99.90
81488;DHT22;70897;52.464;13.428;2024-03-23T17:26:22;6.00;99.90
81488;DHT22;70897;52.464;13.428;2024-03-23T17:29:07;6.00;99.90
81488;DHT22;70897;52.464;13.428;2024-03-23T17:31:52;6.00;99.90
81488;DHT22;70897;52.464;13.428;2024-03-23T17:34:37;5.80;99.90
81488;DHT22;70897;52.464;13.428;2024-03-23T17:38:01;5.80;99.90
81488;DHT22;70897;52.464;13.428;2024-03-23T17:40:46;5.80;99.90
81488;DHT22;70897;52.464;13.428;2024-03-23T17:44:27;5.60;99.90
81488;DHT22;70897;52.464;13.428;2024-03-23T17:47:07;5.60;99.90
81488;DHT22;70897;52.464;13.428;2024-03-23T17:50:21;5.60;99.90
81488;DHT22;70897;52.464;13.428;2024-03-23T17:56:48;5.50;99.90
81488;DHT22;70897;52.464;13.428;2024-03-23T17:59:33;5.50;99.90
81488;DHT22;70897;52.464;13.428;2024-03-23T18:02:19;5.40;99.90
81488;DHT22;70897;52.464;13.428;2024-03-23T18:05:06;5.40;99.90
81488;DHT22;70897;52.464;13.428;2024-03-23T18:07:56;5.30;99.90
81488;DHT22;70897;52.464;13.428;2024-03-23T18:11:49;5.30;99.90
81488;DHT22;70897;52.464;13.428;2024-03-23T18:15:20;5.40;99.90
81488;DHT22;70897;52.464;13.428;2024-03-23T18:18:05;5.40;99.90
81488;DHT22;70897;52.464;13.428;2024-03-23T18:20:50;5.40;99.90
81488;DHT22;70897;52.464;13.428;2024-03-23T18:23:36;5.50;99.90
81488;DHT22;70897;52.464;13.428;2024-03-23T18:27:10;5.50;99.90
81488;DHT22;70897;52.464;13.428;2024-03-23T18:30:26;5.70;99.90